Time;durP1;ratioP1;P1;durP2;ratioP2;P2;SDS_P1;SDS_P2;PMS_P1;PMS_P2;Temp;Humidity;BMP_temperature;BMP_pressure;BME280_temperature;BME280_humidity;BME280_pressure;Samples;Min_cycle;Max_cycle;Signal;HPM_P1;HPM_P2
2024/02/21 05:01:26;;;;;;;1.10;0.90;;;8.20;97.30;;;;;;5567891;23;20699;-58
2024/02/21 05:03:51;;;;;;;1.40;1.30;;;8.20;97.30;;;;;;4947062;28;20431;-58
2024/02/21 05:06:17;;;;;;;1.93;1.83;;;8.20;97.30;;;;;;4948803;28;20172;-58
2024/02/21 05:08:42;;;;;;;1.63;1.53;;;8.10;97.30;;;;;;4947608;28;20259;-58
2024/02/21 05:11:08;;;;;;;1.00;0.90;;;8.10;97.30;;;;;;4945408;28;20306;-59
2024/02/21 05:13:35;;;;;;;1.87;1.83;;;8.10;97.30;;;;;;4934598;29;20240;-58
2024/02/21 05:16:02;;;;;;;1.57;1.47;;;8.10;97.30;;;;;;4930562;29;20451;-59
2024/02/21 05:18:28;;;;;;;1.80;1.70;;;8.10;97.30;;;;;;4930654;29;20800;-58
2024/02/21 05:20:54;;;;;;;4.60;1.97;;;8.10;97.30;;;;;;4930297;29;20474;-59
2024/02/21 05:23:19;;;;;;;2.03;1.83;;;8.20;97.30;;;;;;4929206;29;20483;-59
2024/02/21 05:25:45;;;;;;;5.07;2.10;;;8.10;97.30;;;;;;4928955;29;20184;-59
2024/02/21 05:28:11;;;;;;;1.60;1.40;;;8.20;97.30;;;;;;4930185;29;20180;-58
2024/02/21 05:30:36;;;;;;;1.10;1.00;;;8.20;97.30;;;;;;4930023;29;20471;-59
2024/02/21 05:33:08;;;;;;;1.70;1.63;;;8.20;97.30;;;;;;4931456;29;20191;-58
2024/02/21 05:35:34;;;;;;;0.90;0.90;;;8.20;97.30;;;;;;4926186;29;20188;-59
2024/02/21 05:38:00;;;;;;;1.50;1.40;;;8.20;97.30;;;;;;4930976;29;20446;-58
2024/02/21 05:40:25;;;;;;;2.40;2.23;;;8.20;97.30;;;;;;4929043;29;20995;-58
2024/02/21 05:42:51;;;;;;;2.50;2.30;;;8.20;97.30;;;;;;4929089;29;20183;-58
2024/02/21 05:45:17;;;;;;;33.47;2.37;;;8.20;97.30;;;;;;4929098;29;20242;-58
2024/02/21 05:47:43;;;;;;;9.20;1.77;;;8.20;97.30;;;;;;4929068;29;20427;-59
2024/02/21 05:50:10;;;;;;;1.33;1.27;;;8.20;97.30;;;;;;4930153;29;20971;-60
2024/02/21 05:52:35;;;;;;;1.10;1.03;;;8.20;97.30;;;;;;4935281;29;20247;-59
2024/02/21 05:55:01;;;;;;;2.83;1.73;;;8.20;97.30;;;;;;4932408;29;20423;-59
2024/02/21 05:57:26;;;;;;;1.00;0.90;;;8.20;97.30;;;;;;4931121;29;20183;-59
2024/02/21 05:59:52;;;;;;;1.33;1.30;;;8.20;97.30;;;;;;4932311;29;20552;-59
2024/02/21 06:02:17;;;;;;;7.40;2.17;;;8.20;97.30;;;;;;4932302;29;20243;-59
2024/02/21 06:04:44;;;;;;;2.40;2.20;;;8.20;97.30;;;;;;4932503;29;20199;-59
2024/02/21 06:07:09;;;;;;;4.13;3.90;;;8.20;97.30;;;;;;4932720;29;20215;-59
2024/02/21 06:09:35;;;;;;;5.33;2.13;;;8.20;97.30;;;;;;4932679;29;20703;-58
2024/02/21 06:12:00;;;;;;;1.43;1.37;;;8.20;97.30;;;;;;4932692;29;20664;-57
2024/02/21 06:14:26;;;;;;;1.30;1.20;;;8.20;97.30;;;;;;4941924;29;20192;-59
2024/02/21 06:16:51;;;;;;;6.20;1.73;;;8.20;97.30;;;;;;4932193;29;20180;-59
2024/02/21 06:19:17;;;;;;;8.70;2.00;;;8.20;97.30;;;;;;4932497;29;20786;-59
2024/02/21 06:21:42;;;;;;;1.30;1.20;;;8.10;97.30;;;;;;4941748;28;20235;-58
2024/02/21 06:24:08;;;;;;;7.10;1.53;;;8.10;97.30;;;;;;4932640;29;20267;-59
2024/02/21 06:26:33;;;;;;;3.27;1.57;;;8.10;97.30;;;;;;4932943;29;20231;-59
2024/02/21 06:28:59;;;;;;;1.10;1.00;;;8.00;97.30;;;;;;4933663;29;20245;-59
2024/02/21 06:31:25;;;;;;;1.43;1.33;;;8.00;97.30;;;;;;4933526;29;20208;-59
2024/02/21 06:33:51;;;;;;;1.17;1.07;;;7.90;97.30;;;;;;4931975;29;20184;-59
2024/02/21 06:36:16;;;;;;;2.80;1.27;;;7.90;97.30;;;;;;4932124;29;20206;-59
2024/02/21 06:38:42;;;;;;;2.00;1.23;;;7.90;97.30;;;;;;4933227;29;20263;-59
2024/02/21 06:41:18;;;;;;;1.10;1.00;;;7.90;97.30;;;;;;4933231;29;20294;-58
2024/02/21 06:43:45;;;;;;;1.93;1.30;;;7.90;97.30;;;;;;4931891;29;20188;-59
2024/02/21 06:46:10;;;;;;;1.27;1.20;;;7.90;97.30;;;;;;4932897;29;20450;-58
2024/02/21 06:48:36;;;;;;;2.90;0.90;;;8.00;97.30;;;;;;4933333;29;20566;-58
2024/02/21 06:51:01;;;;;;;1.23;1.13;;;8.00;97.30;;;;;;4933156;29;20298;-59
2024/02/21 06:53:27;;;;;;;2.13;1.97;;;7.90;97.30;;;;;;4931612;29;20183;-58
2024/02/21 06:55:53;;;;;;;6.60;1.30;;;8.00;97.30;;;;;;4932865;29;20188;-64
2024/02/21 06:58:18;;;;;;;1.70;1.27;;;8.00;97.30;;;;;;4933042;29;20423;-58
2024/02/21 07:00:44;;;;;;;1.90;1.10;;;8.00;97.30;;;;;;4930337;29;20208;-58
2024/02/21 07:03:09;;;;;;;1.50;1.33;;;8.00;97.30;;;;;;4931517;29;20606;-58
2024/02/21 07:05:35;;;;;;;1.10;1.00;;;8.00;97.30;;;;;;4932265;29;20191;-58
2024/02/21 07:08:00;;;;;;;8.33;2.53;;;8.00;97.30;;;;;;4930145;29;20196;-59
2024/02/21 07:10:28;;;;;;;1.10;1.00;;;8.00;97.30;;;;;;4948750;28;20215;-58
2024/02/21 07:12:54;;;;;;;1.73;1.40;;;8.00;97.30;;;;;;4932201;28;20178;-58
2024/02/21 07:15:20;;;;;;;1.33;1.30;;;8.10;97.30;;;;;;4933281;29;20418;-59
2024/02/21 07:17:46;;;;;;;3.67;1.53;;;8.20;97.30;;;;;;4934022;29;20428;-59
2024/02/21 07:20:11;;;;;;;1.00;0.90;;;8.20;97.30;;;;;;4939187;28;20188;-59
2024/02/21 07:22:37;;;;;;;1.67;1.57;;;8.20;97.30;;;;;;4935513;29;20187;-59
2024/02/21 07:25:03;;;;;;;1.67;1.53;;;8.30;97.30;;;;;;4936279;29;20191;-58
2024/02/21 07:27:31;;;;;;;2.63;2.43;;;8.30;97.30;;;;;;4935268;29;20188;-59
2024/02/21 07:29:57;;;;;;;0.97;0.87;;;8.30;97.30;;;;;;4935280;29;20203;-59
2024/02/21 07:32:22;;;;;;;1.77;1.73;;;8.30;97.30;;;;;;4930632;29;20430;-59
2024/02/21 07:34:48;;;;;;;2.73;2.53;;;8.40;97.30;;;;;;4936862;29;20790;-59
2024/02/21 07:37:13;;;;;;;1.27;1.17;;;8.40;97.30;;;;;;4933835;28;20184;-59
2024/02/21 07:39:39;;;;;;;1.73;1.63;;;8.40;97.30;;;;;;4935566;29;20184;-59
2024/02/21 07:42:04;;;;;;;2.70;2.40;;;8.40;97.30;;;;;;4936770;29;20226;-59
2024/02/21 07:44:32;;;;;;;1.90;1.80;;;8.40;97.30;;;;;;4933844;29;20270;-60
2024/02/21 07:46:58;;;;;;;2.63;1.60;;;8.50;97.30;;;;;;4935557;28;20244;-59
2024/02/21 07:49:24;;;;;;;1.67;1.57;;;8.50;97.30;;;;;;4932752;29;20915;-58
2024/02/21 07:51:50;;;;;;;1.00;0.90;;;8.50;97.30;;;;;;4934735;29;20259;-59
2024/02/21 07:54:15;;;;;;;2.20;1.97;;;8.50;97.30;;;;;;4938552;29;20414;-60
2024/02/21 07:56:41;;;;;;;1.60;1.50;;;8.50;97.30;;;;;;4934667;28;20271;-60
2024/02/21 07:59:07;;;;;;;2.80;2.30;;;8.60;97.30;;;;;;4936649;29;20268;-59
2024/02/21 08:01:33;;;;;;;3.33;1.33;;;8.60;97.30;;;;;;4929529;29;20654;-58
2024/02/21 08:03:59;;;;;;;4.87;2.60;;;8.60;97.30;;;;;;4931301;29;20422;-59
2024/02/21 08:06:24;;;;;;;1.70;1.60;;;8.70;97.30;;;;;;4931503;29;20187;-60
2024/02/21 08:08:50;;;;;;;1.43;1.10;;;8.80;97.30;;;;;;4931621;29;20795;-60
2024/02/21 08:11:16;;;;;;;1.40;1.30;;;8.80;97.30;;;;;;4929742;29;20243;-59
2024/02/21 08:13:41;;;;;;;1.77;1.70;;;8.90;97.30;;;;;;4931593;29;20262;-59
2024/02/21 08:16:06;;;;;;;1.77;1.37;;;8.90;97.30;;;;;;4930866;29;20180;-59
2024/02/21 08:18:36;;;;;;;4.20;2.77;;;8.90;97.30;;;;;;4931355;29;20258;-59
2024/02/21 08:21:03;;;;;;;2.67;2.27;;;9.00;97.30;;;;;;4933937;29;20286;-60
2024/02/21 08:23:28;;;;;;;2.63;2.37;;;9.00;97.30;;;;;;4930864;29;20810;-64
2024/02/21 08:25:54;;;;;;;3.27;1.73;;;9.00;97.30;;;;;;4935320;29;20431;-59
2024/02/21 08:28:20;;;;;;;3.10;2.90;;;9.00;97.30;;;;;;4928396;29;20204;-59
2024/02/21 08:30:47;;;;;;;1.53;1.47;;;9.10;97.30;;;;;;4932985;29;20472;-58
2024/02/21 08:33:15;;;;;;;1.10;1.00;;;9.10;97.30;;;;;;4930723;29;20179;-60
2024/02/21 08:35:40;;;;;;;3.90;2.50;;;9.20;97.30;;;;;;4933291;29;20503;-59
2024/02/21 08:38:06;;;;;;;1.63;1.53;;;9.30;97.30;;;;;;4931500;29;21166;-58
2024/02/21 08:40:31;;;;;;;2.07;1.93;;;9.30;97.30;;;;;;4931746;29;20719;-60
2024/02/21 08:42:57;;;;;;;4.33;2.50;;;9.30;97.30;;;;;;4930386;29;20272;-60
2024/02/21 08:45:22;;;;;;;1.83;1.20;;;9.20;97.30;;;;;;4930247;29;20476;-60
2024/02/21 08:47:48;;;;;;;2.97;2.77;;;9.20;97.30;;;;;;4933225;29;20190;-59
2024/02/21 08:50:13;;;;;;;14.20;3.60;;;9.10;97.30;;;;;;4931741;29;20204;-61
2024/02/21 08:52:39;;;;;;;4.30;1.50;;;9.10;97.30;;;;;;4931543;29;20187;-62
2024/02/21 08:55:05;;;;;;;2.50;1.67;;;9.10;97.30;;;;;;4930462;29;20195;-58
2024/02/21 08:57:36;;;;;;;14.07;2.93;;;9.10;97.30;;;;;;4933134;29;20187;-60
2024/02/21 09:00:09;;;;;;;3.07;1.63;;;9.10;97.30;;;;;;4930440;29;20431;-60
2024/02/21 09:02:36;;;;;;;3.53;1.57;;;9.10;97.30;;;;;;4926509;29;20891;-59
2024/02/21 09:05:02;;;;;;;2.60;2.20;;;9.10;97.30;;;;;;4930259;29;20424;-59
2024/02/21 09:07:28;;;;;;;1.97;1.90;;;9.10;97.30;;;;;;4931269;29;20431;-59
2024/02/21 09:09:53;;;;;;;2.40;2.20;;;9.10;97.30;;;;;;4931750;29;20467;-60
2024/02/21 09:12:19;;;;;;;13.90;1.90;;;9.10;97.30;;;;;;4933870;29;20266;-60
2024/02/21 09:14:47;;;;;;;2.50;2.00;;;9.00;97.30;;;;;;4932751;29;20183;-61
2024/02/21 09:17:14;;;;;;;2.13;1.93;;;9.00;97.30;;;;;;4931139;29;20182;-60
2024/02/21 09:19:40;;;;;;;2.03;1.90;;;9.00;97.30;;;;;;4931492;29;20426;-59
2024/02/21 09:22:05;;;;;;;14.73;1.30;;;9.00;97.30;;;;;;4934392;28;20455;-61
2024/02/21 09:24:31;;;;;;;4.30;3.33;;;9.00;97.30;;;;;;4931607;28;20194;-59
2024/02/21 09:26:56;;;;;;;2.33;2.13;;;9.00;97.30;;;;;;4931334;29;20602;-59
2024/02/21 09:29:22;;;;;;;1.43;1.33;;;9.00;97.30;;;;;;4931905;29;20683;-59
2024/02/21 09:31:47;;;;;;;1.53;1.47;;;9.10;97.30;;;;;;4932418;28;20238;-60
2024/02/21 09:34:13;;;;;;;1.57;1.47;;;9.10;97.30;;;;;;4935811;29;20253;-59
2024/02/21 09:36:40;;;;;;;2.43;2.23;;;9.20;97.30;;;;;;4931085;29;20195;-59
2024/02/21 09:39:05;;;;;;;1.67;1.57;;;9.20;97.30;;;;;;4935395;29;20311;-59
2024/02/21 09:41:35;;;;;;;1.53;1.43;;;9.20;97.30;;;;;;4931230;29;20541;-59
2024/02/21 09:44:00;;;;;;;1.30;1.20;;;9.30;97.30;;;;;;4929421;29;20188;-58
2024/02/21 09:46:51;;;;;;;1.97;1.87;;;9.30;97.30;;;;;;4930228;29;20559;-59
2024/02/21 09:49:33;;;;;;;17.23;5.17;;;9.40;97.30;;;;;;4928673;29;20242;-58
2024/02/21 09:52:06;;;;;;;1.93;1.53;;;9.30;97.30;;;;;;4930414;29;20451;-59
2024/02/21 09:54:35;;;;;;;3.87;2.03;;;9.20;97.30;;;;;;4929747;29;20965;-60
2024/02/21 09:57:02;;;;;;;21.63;3.83;;;9.20;97.30;;;;;;4930810;29;20423;-59
2024/02/21 09:59:29;;;;;;;6.70;1.97;;;9.20;97.30;;;;;;4933840;29;20481;-59
2024/02/21 10:01:55;;;;;;;1.10;1.00;;;9.10;97.30;;;;;;4930931;29;20976;-59
2024/02/21 10:04:20;;;;;;;1.70;1.67;;;9.20;97.30;;;;;;4937182;29;20437;-59
2024/02/21 10:06:46;;;;;;;2.63;2.10;;;9.20;97.30;;;;;;4931270;29;20420;-59
2024/02/21 10:09:28;;;;;;;2.20;1.67;;;9.30;97.30;;;;;;4930999;29;20188;-59
2024/02/21 10:11:54;;;;;;;1.03;0.93;;;9.40;97.30;;;;;;4929542;29;20446;-59
2024/02/21 10:14:20;;;;;;;4.13;1.53;;;9.30;97.30;;;;;;4934011;29;20423;-60
2024/02/21 10:16:58;;;;;;;1.97;1.53;;;9.40;97.30;;;;;;4931573;29;20415;-59
2024/02/21 10:19:24;;;;;;;1.73;1.63;;;9.40;97.30;;;;;;4929025;29;20274;-60
2024/02/21 10:22:07;;;;;;;1.17;1.07;;;9.50;97.30;;;;;;4932956;28;20913;-60
2024/02/21 10:24:33;;;;;;;1.17;1.07;;;9.50;97.30;;;;;;4931611;29;20304;-59
2024/02/21 10:27:03;;;;;;;4.13;1.50;;;9.50;97.30;;;;;;4932017;29;20416;-60
2024/02/21 10:29:30;;;;;;;2.27;2.10;;;9.60;97.30;;;;;;4930338;29;20439;-59
2024/02/21 10:32:13;;;;;;;2.23;1.77;;;9.60;97.30;;;;;;4929436;29;20854;-61
2024/02/21 10:34:40;;;;;;;2.43;1.63;;;9.70;97.30;;;;;;4924435;29;20833;-59
2024/02/21 10:37:07;;;;;;;6.13;2.50;;;9.60;97.30;;;;;;4930292;29;20424;-60
2024/02/21 10:39:35;;;;;;;3.50;3.30;;;9.70;97.30;;;;;;4933039;28;20470;-59
2024/02/21 10:42:04;;;;;;;1.60;1.20;;;9.80;97.30;;;;;;4933986;29;20958;-60
2024/02/21 10:44:31;;;;;;;1.13;1.03;;;9.90;97.30;;;;;;4934284;29;20420;-59
2024/02/21 10:46:57;;;;;;;7.80;2.20;;;10.00;97.30;;;;;;4934106;29;20420;-61
2024/02/21 10:49:28;;;;;;;4.43;2.67;;;9.90;97.30;;;;;;4932571;29;20797;-60
2024/02/21 10:52:17;;;;;;;2.10;1.73;;;9.90;97.30;;;;;;4933188;29;20451;-60
2024/02/21 10:55:04;;;;;;;6.73;3.20;;;9.80;97.30;;;;;;4940362;28;20849;-59
2024/02/21 10:57:31;;;;;;;2.47;2.00;;;9.90;97.30;;;;;;4931916;29;20439;-59
2024/02/21 10:59:59;;;;;;;5.00;2.53;;;10.10;97.30;;;;;;4932628;29;20439;-59
2024/02/21 11:02:26;;;;;;;1.17;1.00;;;10.00;97.30;;;;;;4933372;29;20837;-60
2024/02/21 11:04:53;;;;;;;2.23;1.60;;;9.90;97.30;;;;;;4933952;29;20947;-60
2024/02/21 11:07:19;;;;;;;1.97;1.57;;;9.80;97.30;;;;;;4938670;29;21043;-59
2024/02/21 11:09:55;;;;;;;2.73;2.40;;;9.80;97.30;;;;;;4933584;29;20467;-61
2024/02/21 11:12:21;;;;;;;1.83;1.33;;;9.80;97.30;;;;;;4934575;28;20542;-60
2024/02/21 11:14:47;;;;;;;1.23;1.17;;;9.70;97.30;;;;;;4933496;29;20450;-60
2024/02/21 11:17:17;;;;;;;1.73;1.63;;;9.70;97.30;;;;;;4933005;29;20520;-59
2024/02/21 11:19:42;;;;;;;9.83;1.97;;;9.70;97.30;;;;;;4933464;29;20184;-59
2024/02/21 11:22:19;;;;;;;1.00;0.90;;;9.70;97.30;;;;;;4933388;29;20590;-60
2024/02/21 11:24:45;;;;;;;1.33;1.23;;;9.70;97.30;;;;;;4930227;29;20214;-59
2024/02/21 11:27:25;;;;;;;2.27;1.40;;;9.70;97.30;;;;;;4931801;29;20451;-58
2024/02/21 11:29:58;;;;;;;1.17;1.10;;;9.90;97.30;;;;;;4933149;29;20550;-59
2024/02/21 11:32:27;;;;;;;1.23;1.10;;;10.00;97.30;;;;;;4933474;28;20457;-59
2024/02/21 11:35:03;;;;;;;1.40;1.30;;;10.10;97.30;;;;;;4933164;29;20782;-59
2024/02/21 11:37:32;;;;;;;2.00;1.60;;;10.20;97.30;;;;;;4933258;29;20992;-60
2024/02/21 11:39:58;;;;;;;4.03;1.93;;;10.40;97.30;;;;;;4934393;29;20779;-59
2024/02/21 11:42:26;;;;;;;10.00;2.20;;;10.40;97.30;;;;;;4940820;29;20543;-61
2024/02/21 11:44:52;;;;;;;2.63;2.43;;;10.40;97.30;;;;;;4931847;29;20579;-60
2024/02/21 11:47:18;;;;;;;1.57;1.47;;;10.30;97.30;;;;;;4931580;29;20424;-59
2024/02/21 11:49:46;;;;;;;26.73;3.80;;;10.30;97.30;;;;;;4946812;29;20477;-60
2024/02/21 11:52:15;;;;;;;1.50;1.40;;;10.20;97.30;;;;;;4943690;29;20701;-60
2024/02/21 11:54:41;;;;;;;1.30;1.20;;;10.20;97.30;;;;;;4945595;29;20438;-59
2024/02/21 11:57:07;;;;;;;2.00;1.37;;;10.30;97.30;;;;;;4933246;29;20846;-60
2024/02/21 11:59:33;;;;;;;1.40;1.30;;;10.30;97.30;;;;;;4931878;29;20279;-60
2024/02/21 12:02:04;;;;;;;2.40;1.70;;;10.40;97.30;;;;;;4933188;29;20511;-59
2024/02/21 12:04:33;;;;;;;1.63;1.53;;;10.40;97.30;;;;;;4931636;29;21087;-60
2024/02/21 12:06:59;;;;;;;1.30;1.20;;;10.50;97.30;;;;;;4940813;29;20482;-60
2024/02/21 12:09:26;;;;;;;3.90;2.27;;;10.50;97.30;;;;;;4939237;29;20431;-59
2024/02/21 12:12:03;;;;;;;2.00;1.67;;;10.60;97.30;;;;;;4940760;28;20455;-60
2024/02/21 12:14:30;;;;;;;1.63;1.23;;;10.60;97.30;;;;;;4938853;29;20442;-60
2024/02/21 12:16:55;;;;;;;1.93;1.43;;;10.70;97.30;;;;;;4931395;29;20950;-59
2024/02/21 12:19:21;;;;;;;1.57;1.47;;;10.80;97.30;;;;;;4931392;29;20427;-59
2024/02/21 12:21:49;;;;;;;0.80;0.70;;;10.80;97.30;;;;;;4932022;29;20220;-59
2024/02/21 12:24:21;;;;;;;1.40;0.93;;;10.80;97.30;;;;;;4945877;29;20194;-59
2024/02/21 12:26:47;;;;;;;1.00;0.90;;;10.90;97.30;;;;;;4938284;29;20415;-60
2024/02/21 12:29:12;;;;;;;1.17;0.90;;;11.00;97.30;;;;;;4940256;29;20798;-62
2024/02/21 12:31:38;;;;;;;1.00;0.90;;;11.00;97.30;;;;;;4930841;29;20225;-61
2024/02/21 12:34:04;;;;;;;1.37;1.33;;;11.00;97.30;;;;;;4932514;29;20188;-60
2024/02/21 12:36:33;;;;;;;3.80;1.73;;;11.00;97.30;;;;;;4932527;29;20430;-60
2024/02/21 12:39:00;;;;;;;1.93;1.03;;;11.10;97.30;;;;;;4933168;29;20188;-60
2024/02/21 12:41:26;;;;;;;0.93;0.83;;;11.00;97.30;;;;;;4935025;29;20954;-60
2024/02/21 12:43:52;;;;;;;0.80;0.70;;;10.90;97.30;;;;;;4937580;29;20424;-61
2024/02/21 12:46:18;;;;;;;1.47;1.37;;;11.00;97.30;;;;;;4948457;29;20445;-61
2024/02/21 12:48:43;;;;;;;2.80;1.50;;;11.00;97.30;;;;;;4936966;29;20645;-60
2024/02/21 12:51:09;;;;;;;0.90;0.80;;;11.10;97.30;;;;;;4931093;29;20253;-60
2024/02/21 12:53:34;;;;;;;1.47;1.40;;;11.50;97.30;;;;;;4932476;29;20219;-60
2024/02/21 12:56:00;;;;;;;2.60;1.63;;;11.70;97.30;;;;;;4932293;29;20220;-60
2024/02/21 12:58:26;;;;;;;1.93;1.83;;;11.80;97.30;;;;;;4931086;29;20237;-60
2024/02/21 13:00:51;;;;;;;1.23;1.13;;;11.60;97.30;;;;;;4936673;29;20595;-60
2024/02/21 13:03:17;;;;;;;6.30;1.53;;;11.70;97.30;;;;;;4933177;29;20691;-61
2024/02/21 13:05:42;;;;;;;1.57;1.33;;;11.40;97.30;;;;;;4932090;29;20195;-61
2024/02/21 13:08:11;;;;;;;0.70;0.70;;;11.40;97.30;;;;;;4932215;29;20191;-61
2024/02/21 13:10:37;;;;;;;2.03;1.23;;;11.30;97.30;;;;;;4939753;28;20266;-61
2024/02/21 13:13:03;;;;;;;2.40;1.47;;;11.40;97.30;;;;;;4932245;29;20428;-61
2024/02/21 13:15:29;;;;;;;0.90;0.80;;;11.50;97.30;;;;;;4931975;29;20430;-61
2024/02/21 13:17:57;;;;;;;1.17;1.17;;;11.50;97.30;;;;;;4932058;29;20266;-61
2024/02/21 13:20:23;;;;;;;0.80;0.70;;;11.60;97.30;;;;;;4930366;29;20223;-60
2024/02/21 13:22:48;;;;;;;1.27;1.17;;;12.00;97.30;;;;;;4931947;29;20939;-60
2024/02/21 13:25:20;;;;;;;3.03;1.50;;;12.30;97.30;;;;;;4936402;29;20269;-61
2024/02/21 13:27:45;;;;;;;1.47;1.33;;;12.90;97.30;;;;;;4938507;29;20211;-61
2024/02/21 13:30:11;;;;;;;1.20;1.10;;;13.20;96.70;;;;;;4929904;29;20523;-60
2024/02/21 13:32:37;;;;;;;1.20;1.20;;;13.10;95.50;;;;;;4929934;29;20191;-61
2024/02/21 13:35:03;;;;;;;0.93;0.87;;;13.20;95.30;;;;;;4930171;29;20438;-60
2024/02/21 13:37:29;;;;;;;2.43;1.07;;;13.30;94.70;;;;;;4931383;29;20239;-60
2024/02/21 13:39:54;;;;;;;3.33;1.93;;;13.30;95.00;;;;;;4928337;29;20463;-61
2024/02/21 13:42:20;;;;;;;1.00;0.90;;;13.00;94.60;;;;;;4930922;29;20299;-61
2024/02/21 13:44:46;;;;;;;13.43;2.83;;;12.90;94.90;;;;;;4930232;29;20229;-61
2024/02/21 13:47:15;;;;;;;1.10;1.00;;;12.90;95.60;;;;;;4930218;29;20625;-61
2024/02/21 13:49:41;;;;;;;1.73;1.73;;;12.90;95.70;;;;;;4936842;29;20584;-62
2024/02/21 13:52:06;;;;;;;3.03;1.60;;;13.00;95.40;;;;;;4930042;29;21019;-61
2024/02/21 13:54:32;;;;;;;1.33;1.20;;;13.00;95.10;;;;;;4942349;29;20502;-61
2024/02/21 13:56:57;;;;;;;1.20;1.10;;;13.30;95.40;;;;;;4936037;29;20195;-61
2024/02/21 13:59:23;;;;;;;1.47;1.37;;;13.30;94.90;;;;;;4929636;29;20784;-61
2024/02/21 14:01:48;;;;;;;1.23;1.23;;;13.20;95.20;;;;;;4931338;29;20998;-61
2024/02/21 14:04:14;;;;;;;1.00;0.90;;;13.00;94.80;;;;;;4930519;29;20199;-62
2024/02/21 14:06:43;;;;;;;2.43;1.20;;;12.80;94.60;;;;;;4938349;29;20188;-61
2024/02/21 14:09:12;;;;;;;0.90;0.80;;;13.00;94.50;;;;;;4925534;29;20190;-61
2024/02/21 14:11:39;;;;;;;1.03;1.03;;;13.10;93.40;;;;;;4934189;29;20898;-61
2024/02/21 14:14:05;;;;;;;1.83;1.73;;;13.20;93.70;;;;;;4935274;29;20416;-61
2024/02/21 14:16:31;;;;;;;1.10;1.00;;;13.30;93.40;;;;;;4933412;29;20483;-61
2024/02/21 14:18:56;;;;;;;1.10;1.00;;;13.40;92.30;;;;;;4934823;29;20661;-60
2024/02/21 14:21:22;;;;;;;1.47;1.00;;;13.50;92.30;;;;;;4944579;29;20207;-61
2024/02/21 14:23:48;;;;;;;3.90;1.40;;;13.40;91.80;;;;;;4952501;29;20650;-60
2024/02/21 14:26:14;;;;;;;1.10;1.00;;;13.20;92.10;;;;;;4953587;29;20227;-61
2024/02/21 14:28:40;;;;;;;17.80;2.10;;;13.10;92.20;;;;;;4937115;29;20776;-60
2024/02/21 14:31:08;;;;;;;1.17;1.07;;;12.90;92.80;;;;;;4934215;29;20480;-60
2024/02/21 14:33:34;;;;;;;1.80;1.50;;;12.90;93.10;;;;;;4945118;29;20457;-61
2024/02/21 14:36:00;;;;;;;1.20;1.10;;;12.80;93.10;;;;;;4938159;29;20526;-60
2024/02/21 14:38:25;;;;;;;4.20;1.57;;;12.60;93.50;;;;;;4942086;29;20425;-60
2024/02/21 14:40:51;;;;;;;1.60;1.50;;;12.60;93.80;;;;;;4941187;28;20203;-60
2024/02/21 14:43:17;;;;;;;1.47;1.10;;;12.50;93.80;;;;;;4941083;29;20198;-61
2024/02/21 14:45:47;;;;;;;0.90;0.80;;;12.40;94.20;;;;;;4942299;29;20566;-60
2024/02/21 14:48:13;;;;;;;1.10;1.03;;;12.40;94.30;;;;;;4933028;29;20939;-60
2024/02/21 14:50:38;;;;;;;0.93;0.90;;;12.40;94.50;;;;;;4925185;29;20483;-61
2024/02/21 14:53:04;;;;;;;1.30;1.23;;;12.30;94.40;;;;;;4938444;29;20178;-61
2024/02/21 14:55:30;;;;;;;2.33;1.73;;;12.20;94.20;;;;;;4937189;28;20634;-61
2024/02/21 14:57:55;;;;;;;1.20;1.10;;;12.10;94.70;;;;;;4946617;29;20172;-61
2024/02/21 15:00:28;;;;;;;1.60;1.53;;;12.10;95.00;;;;;;4940945;28;20238;-61
2024/02/21 15:02:54;;;;;;;1.70;1.60;;;12.10;95.10;;;;;;4942391;29;20282;-63
2024/02/21 15:05:19;;;;;;;2.50;1.77;;;12.00;95.10;;;;;;4934397;29;20428;-61
2024/02/21 15:07:45;;;;;;;31.50;1.50;;;12.00;95.30;;;;;;4936984;29;20782;-61
2024/02/21 15:10:11;;;;;;;1.37;1.10;;;12.00;95.60;;;;;;4937559;29;20684;-61
2024/02/21 15:12:36;;;;;;;1.00;0.90;;;11.90;95.70;;;;;;4932874;29;20172;-62
2024/02/21 15:15:04;;;;;;;1.80;1.70;;;11.90;95.10;;;;;;4934643;29;20434;-61
2024/02/21 15:17:29;;;;;;;1.27;1.13;;;11.80;95.20;;;;;;4933678;29;20212;-61
2024/02/21 15:19:55;;;;;;;1.00;0.90;;;11.80;94.90;;;;;;4938541;29;20423;-61
2024/02/21 15:22:22;;;;;;;1.20;1.10;;;11.80;94.60;;;;;;4934633;28;20210;-60
2024/02/21 15:24:48;;;;;;;2.80;1.73;;;11.80;94.00;;;;;;4932412;29;20527;-61
2024/02/21 15:27:15;;;;;;;1.00;0.90;;;11.80;93.90;;;;;;4931560;29;20428;-62
2024/02/21 15:29:40;;;;;;;1.27;1.17;;;11.70;93.80;;;;;;4932247;29;20443;-61
2024/02/21 15:32:06;;;;;;;0.90;0.83;;;11.70;93.30;;;;;;4932023;29;20471;-61
2024/02/21 15:34:31;;;;;;;9.93;1.67;;;11.70;93.40;;;;;;4941373;29;20205;-61
2024/02/21 15:36:57;;;;;;;1.97;1.87;;;11.60;93.20;;;;;;4939802;29;20199;-61
2024/02/21 15:39:23;;;;;;;1.10;1.00;;;11.60;93.40;;;;;;4934262;29;20173;-61
2024/02/21 15:41:49;;;;;;;0.90;0.80;;;11.50;93.30;;;;;;4940266;28;20214;-61
2024/02/21 15:44:15;;;;;;;1.50;1.20;;;11.50;93.70;;;;;;4941420;29;20423;-61
2024/02/21 15:46:40;;;;;;;1.00;0.90;;;11.40;94.00;;;;;;4933151;29;20314;-61
2024/02/21 15:49:06;;;;;;;10.03;1.37;;;11.30;94.00;;;;;;4933337;29;20186;-61
2024/02/21 15:51:31;;;;;;;2.30;1.67;;;11.30;93.80;;;;;;4932737;29;20215;-61
2024/02/21 15:53:58;;;;;;;1.70;1.50;;;11.30;93.70;;;;;;4937898;29;20184;-61
2024/02/21 15:56:24;;;;;;;0.90;0.80;;;11.30;94.10;;;;;;4933828;29;20258;-62
2024/02/21 15:58:50;;;;;;;1.20;1.10;;;11.20;94.10;;;;;;4933349;29;20506;-61
2024/02/21 16:01:15;;;;;;;0.83;0.73;;;11.20;94.10;;;;;;4932623;29;20238;-61
2024/02/21 16:03:41;;;;;;;2.23;2.03;;;11.20;94.10;;;;;;4938521;29;20683;-63
2024/02/21 16:06:07;;;;;;;21.73;1.40;;;11.10;94.20;;;;;;4937734;29;20191;-61
2024/02/21 16:08:36;;;;;;;0.90;0.80;;;11.10;94.30;;;;;;4935649;28;20707;-62
2024/02/21 16:11:05;;;;;;;1.63;1.20;;;11.10;94.20;;;;;;4942697;29;20226;-61
2024/02/21 16:13:31;;;;;;;6.63;2.83;;;11.00;94.10;;;;;;4934777;28;20435;-61
2024/02/21 16:15:56;;;;;;;1.90;1.43;;;11.00;93.50;;;;;;4937993;29;20487;-62
2024/02/21 16:18:23;;;;;;;1.53;1.30;;;11.00;93.80;;;;;;4937166;29;20171;-61
2024/02/21 16:20:49;;;;;;;1.60;1.53;;;11.00;93.80;;;;;;4938703;28;20684;-62
2024/02/21 16:23:15;;;;;;;1.30;1.20;;;10.90;93.90;;;;;;4931067;29;20424;-63
2024/02/21 16:25:44;;;;;;;1.40;1.30;;;10.90;93.90;;;;;;4929670;29;20436;-63
2024/02/21 16:28:10;;;;;;;0.90;0.80;;;10.80;93.30;;;;;;4931084;29;20438;-63
2024/02/21 16:30:36;;;;;;;1.23;1.13;;;10.80;93.30;;;;;;4929801;29;20851;-60
2024/02/21 16:33:02;;;;;;;1.03;0.93;;;10.80;93.20;;;;;;4932188;29;20420;-63
2024/02/21 16:35:28;;;;;;;1.00;0.90;;;10.70;93.20;;;;;;4932341;29;20265;-63
2024/02/21 16:37:55;;;;;;;1.77;1.53;;;10.70;93.20;;;;;;4932123;29;20431;-63
2024/02/21 16:40:20;;;;;;;1.67;1.57;;;10.60;93.20;;;;;;4937776;28;20183;-63
2024/02/21 16:42:46;;;;;;;1.43;1.33;;;10.50;93.70;;;;;;4930990;29;20796;-63
2024/02/21 16:45:12;;;;;;;1.10;1.00;;;10.50;93.90;;;;;;4937771;29;20342;-63
2024/02/21 16:47:37;;;;;;;1.03;0.93;;;10.40;94.40;;;;;;4937613;29;20198;-63
2024/02/21 16:50:04;;;;;;;2.07;1.80;;;10.40;94.40;;;;;;4937680;29;20219;-63
2024/02/21 16:52:31;;;;;;;1.20;1.17;;;10.40;94.60;;;;;;4932847;29;20291;-63
2024/02/21 16:54:56;;;;;;;2.50;1.87;;;10.40;94.90;;;;;;4932119;29;20441;-63
2024/02/21 16:57:22;;;;;;;1.37;1.27;;;10.40;94.80;;;;;;4944507;29;20974;-64
2024/02/21 16:59:48;;;;;;;2.97;1.63;;;10.40;94.90;;;;;;4937272;29;20286;-63
2024/02/21 17:02:14;;;;;;;2.83;1.27;;;10.30;95.00;;;;;;4931437;29;20459;-62
2024/02/21 17:04:39;;;;;;;14.20;1.43;;;10.30;95.20;;;;;;4938073;29;20262;-60
2024/02/21 17:07:05;;;;;;;9.13;1.30;;;10.30;95.30;;;;;;4936705;29;20274;-60
2024/02/21 17:09:33;;;;;;;4.67;1.23;;;10.20;95.70;;;;;;4938040;29;20637;-63
2024/02/21 17:11:58;;;;;;;2.20;2.00;;;10.20;95.90;;;;;;4930771;29;20463;-62
2024/02/21 17:14:25;;;;;;;2.23;2.03;;;10.10;95.80;;;;;;4930346;29;20428;-60
2024/02/21 17:16:51;;;;;;;3.20;3.00;;;10.10;95.80;;;;;;4939733;29;20186;-63
2024/02/21 17:19:16;;;;;;;1.70;1.60;;;10.10;95.80;;;;;;4930487;29;20435;-63
2024/02/21 17:21:42;;;;;;;3.10;1.90;;;10.00;95.80;;;;;;4929444;29;20220;-60
2024/02/21 17:24:08;;;;;;;1.50;1.40;;;10.00;95.70;;;;;;4932079;29;20188;-60
2024/02/21 17:26:34;;;;;;;1.27;1.17;;;9.90;95.90;;;;;;4931272;29;20215;-63
2024/02/21 17:29:00;;;;;;;1.20;1.10;;;9.90;96.00;;;;;;4930359;29;20211;-61
2024/02/21 17:31:27;;;;;;;1.20;1.10;;;9.80;96.10;;;;;;4931129;29;20219;-63
2024/02/21 17:33:53;;;;;;;1.43;1.23;;;9.80;96.40;;;;;;4931584;29;20849;-63
2024/02/21 17:36:21;;;;;;;10.13;2.27;;;9.70;96.50;;;;;;4928111;29;20432;-63
2024/02/21 17:38:48;;;;;;;0.83;0.73;;;9.70;96.70;;;;;;4938280;29;20504;-62
2024/02/21 17:41:15;;;;;;;1.20;1.20;;;9.60;96.70;;;;;;4940470;29;20446;-63
2024/02/21 17:43:40;;;;;;;1.40;1.33;;;9.60;96.80;;;;;;4931102;29;20447;-63
2024/02/21 17:46:06;;;;;;;2.23;1.40;;;9.60;96.90;;;;;;4932441;29;20454;-63
2024/02/21 17:48:32;;;;;;;1.73;1.63;;;9.60;96.80;;;;;;4939468;29;20184;-62
2024/02/21 17:50:58;;;;;;;2.50;1.20;;;9.60;97.00;;;;;;4934316;29;20464;-63